createdAt,value
2023-02-16T00:00:28.896Z,8.63
2023-02-16T00:02:57.031Z,9.50
2023-02-16T00:05:29.848Z,8.43
2023-02-16T00:07:59.080Z,7.55
2023-02-16T00:10:33.495Z,7.85
2023-02-16T00:13:20.899Z,8.73
2023-02-16T00:15:48.756Z,7.70
2023-02-16T00:18:22.009Z,8.05
2023-02-16T00:20:50.054Z,8.40
2023-02-16T00:23:17.948Z,8.40
2023-02-16T00:25:45.832Z,9.05
2023-02-16T00:28:20.598Z,8.60
2023-02-16T00:30:50.513Z,9.50
2023-02-16T00:33:21.173Z,8.35
2023-02-16T00:35:49.642Z,10.70
2023-02-16T00:38:17.530Z,9.65
2023-02-16T00:40:45.502Z,8.70
2023-02-16T00:43:27.314Z,10.32
2023-02-16T00:45:56.363Z,9.60
2023-02-16T00:48:25.003Z,10.48
2023-02-16T00:50:54.660Z,11.63
2023-02-16T00:53:22.763Z,9.85
2023-02-16T00:55:50.611Z,10.85
2023-02-16T00:58:27.237Z,10.23
2023-02-16T01:01:01.680Z,11.73
2023-02-16T01:03:30.147Z,10.20
2023-02-16T01:06:16.673Z,10.63
2023-02-16T01:09:03.039Z,10.77
2023-02-16T01:11:33.721Z,10.73
2023-02-16T01:14:02.884Z,10.80
2023-02-16T01:16:40.507Z,11.45
2023-02-16T01:19:10.440Z,11.32
2023-02-16T01:21:38.332Z,10.90
2023-02-16T01:24:06.362Z,11.25
2023-02-16T01:26:44.252Z,10.07
2023-02-16T01:29:16.732Z,10.20
2023-02-16T01:31:45.245Z,11.43
2023-02-16T01:34:13.616Z,12.10
2023-02-16T01:36:47.545Z,13.32
2023-02-16T01:42:05.909Z,11.23
2023-02-16T01:45:00.058Z,10.13
2023-02-16T01:47:54.030Z,10.65
2023-02-16T01:50:45.585Z,10.10
2023-02-16T01:53:31.332Z,10.90
2023-02-16T01:56:10.231Z,12.35
2023-02-16T01:58:52.821Z,12.85
2023-02-16T02:02:05.116Z,10.95
2023-02-16T02:05:11.853Z,10.93
2023-02-16T02:08:01.680Z,10.70
2023-02-16T02:10:42.278Z,11.00
2023-02-16T02:13:27.743Z,10.27
2023-02-16T02:15:59.572Z,10.73
2023-02-16T02:18:27.581Z,10.88
2023-02-16T02:21:54.805Z,9.20
2023-02-16T02:24:50.424Z,10.27
2023-02-16T02:27:19.112Z,12.70
2023-02-16T02:29:59.853Z,10.65
2023-02-16T02:32:42.837Z,11.10
2023-02-16T02:35:20.911Z,10.38
2023-02-16T02:38:07.403Z,10.68
2023-02-16T02:40:55.547Z,12.32
2023-02-16T02:43:52.884Z,11.35
2023-02-16T02:46:36.398Z,10.65
2023-02-16T02:49:05.279Z,12.00
2023-02-16T02:51:33.825Z,10.98
2023-02-16T02:54:32.918Z,11.20
2023-02-16T02:58:03.731Z,13.13
2023-02-16T03:00:51.578Z,10.85
2023-02-16T03:03:24.247Z,11.88
2023-02-16T03:06:09.899Z,10.77
2023-02-16T03:08:41.209Z,11.18
2023-02-16T03:11:44.201Z,11.65
2023-02-16T03:14:26.277Z,10.25
2023-02-16T03:20:06.875Z,9.73
2023-02-16T03:22:55.052Z,10.52
2023-02-16T03:25:44.075Z,10.82
2023-02-16T03:28:31.808Z,11.07
2023-02-16T03:31:01.599Z,11.32
2023-02-16T03:33:30.254Z,13.52
2023-02-16T03:35:59.219Z,12.48
2023-02-16T03:38:27.365Z,10.63
2023-02-16T03:40:55.323Z,12.57
2023-02-16T03:43:27.035Z,11.63
2023-02-16T03:45:55.391Z,11.63
2023-02-16T03:48:23.289Z,12.43
2023-02-16T03:50:51.153Z,13.07
2023-02-16T03:53:19.058Z,11.77
2023-02-16T03:55:49.159Z,11.02
2023-02-16T03:58:21.212Z,11.70
2023-02-16T04:00:49.601Z,11.13
2023-02-16T04:03:17.747Z,12.18
2023-02-16T04:05:45.983Z,12.52
2023-02-16T04:08:14.205Z,11.75
2023-02-16T04:10:42.216Z,13.05
2023-02-16T04:13:10.161Z,13.32
2023-02-16T04:15:37.964Z,12.20
2023-02-16T04:18:05.839Z,12.70
2023-02-16T04:20:35.220Z,12.18
2023-02-16T04:23:03.543Z,11.82
2023-02-16T04:25:31.536Z,11.73
2023-02-16T04:28:00.929Z,12.90
2023-02-16T04:30:31.367Z,12.13
2023-02-16T04:32:59.464Z,12.30
2023-02-16T04:35:27.600Z,10.60
2023-02-16T04:37:55.539Z,11.50
2023-02-16T04:40:23.562Z,12.90
2023-02-16T04:42:51.495Z,12.63
2023-02-16T04:45:19.417Z,12.82
2023-02-16T04:47:47.229Z,12.98
2023-02-16T04:50:15.242Z,11.45
2023-02-16T04:52:43.102Z,12.80
2023-02-16T04:55:11.218Z,13.32
2023-02-16T04:57:40.105Z,12.35
2023-02-16T05:00:11.594Z,11.13
2023-02-16T05:02:39.940Z,11.85
2023-02-16T05:05:09.855Z,11.98
2023-02-16T05:07:37.856Z,13.20
2023-02-16T05:10:06.457Z,12.55
2023-02-16T05:12:53.212Z,11.05
2023-02-16T05:15:21.229Z,12.52
2023-02-16T05:17:49.145Z,12.00
2023-02-16T05:20:17.288Z,11.80
2023-02-16T05:22:46.405Z,11.52
2023-02-16T05:25:14.378Z,12.57
2023-02-16T05:27:42.346Z,12.60
2023-02-16T05:30:10.905Z,12.63
2023-02-16T05:32:38.852Z,13.40
2023-02-16T05:35:06.833Z,12.38
2023-02-16T05:37:34.667Z,13.60
2023-02-16T05:40:02.681Z,13.13
2023-02-16T05:42:30.515Z,12.50
2023-02-16T05:44:58.356Z,12.70
2023-02-16T05:47:26.206Z,13.40
2023-02-16T05:49:54.064Z,14.13
2023-02-16T05:52:21.895Z,12.63
2023-02-16T05:54:49.811Z,13.60
2023-02-16T05:57:17.618Z,13.38
2023-02-16T05:59:45.481Z,11.95
2023-02-16T06:02:13.497Z,13.25
2023-02-16T06:04:41.443Z,14.27
2023-02-16T06:07:09.279Z,12.18
2023-02-16T06:09:37.129Z,12.68
2023-02-16T06:12:05.409Z,12.35
2023-02-16T06:14:33.248Z,12.00
2023-02-16T06:17:01.410Z,11.70
2023-02-16T06:19:29.451Z,11.88
2023-02-16T06:21:57.310Z,13.43
2023-02-16T06:24:25.261Z,11.55
2023-02-16T06:26:53.106Z,12.38
2023-02-16T06:29:21.059Z,13.25
2023-02-16T06:31:49.012Z,11.73
2023-02-16T06:34:17.016Z,12.75
2023-02-16T06:36:44.902Z,13.02
2023-02-16T06:39:12.721Z,14.07
2023-02-16T06:41:40.849Z,12.27
2023-02-16T06:44:14.580Z,11.45
2023-02-16T06:46:44.756Z,12.23
2023-02-16T06:49:15.650Z,11.48
2023-02-16T06:51:43.829Z,13.13
2023-02-16T06:54:12.458Z,12.63
2023-02-16T06:56:40.694Z,13.00
2023-02-16T06:59:08.992Z,11.57
2023-02-16T07:01:36.898Z,12.27
2023-02-16T07:04:04.770Z,13.27
2023-02-16T07:06:32.741Z,12.57
2023-02-16T07:09:00.680Z,11.48
2023-02-16T07:11:28.944Z,11.70
2023-02-16T07:13:56.752Z,12.63
2023-02-16T07:16:25.026Z,13.05
2023-02-16T07:18:52.953Z,13.15
2023-02-16T07:21:20.833Z,11.95
2023-02-16T07:23:48.798Z,14.15
2023-02-16T07:26:16.749Z,13.60
2023-02-16T07:28:44.673Z,13.15
2023-02-16T07:31:15.793Z,12.50
2023-02-16T07:33:44.095Z,12.93
2023-02-16T07:36:12.616Z,13.35
2023-02-16T07:38:41.981Z,13.45
2023-02-16T07:41:10.769Z,14.40
2023-02-16T07:43:39.392Z,13.02
2023-02-16T07:46:07.506Z,14.27
2023-02-16T07:48:35.516Z,12.57
2023-02-16T07:51:04.094Z,12.45
2023-02-16T07:53:32.253Z,14.13
2023-02-16T07:56:00.695Z,12.90
2023-02-16T07:58:28.685Z,13.20
2023-02-16T08:01:10.983Z,12.88
2023-02-16T08:03:39.075Z,13.38
2023-02-16T08:06:08.761Z,14.70
2023-02-16T08:08:38.069Z,14.88
2023-02-16T08:11:16.973Z,13.70
2023-02-16T08:13:45.738Z,14.63
2023-02-16T08:16:16.025Z,13.57
2023-02-16T08:18:44.112Z,13.67
2023-02-16T08:21:17.700Z,14.27
2023-02-16T08:23:52.858Z,15.02
2023-02-16T08:26:22.816Z,14.52
2023-02-16T08:28:50.977Z,14.93
2023-02-16T08:31:25.337Z,13.65
2023-02-16T08:33:54.900Z,14.50
2023-02-16T08:36:34.798Z,13.57
2023-02-16T08:39:11.574Z,12.75
2023-02-16T08:41:39.701Z,12.93
2023-02-16T08:44:09.330Z,13.57
2023-02-16T08:46:40.517Z,13.80
2023-02-16T08:49:09.358Z,13.02
2023-02-16T08:51:42.191Z,13.43
2023-02-16T08:54:13.405Z,12.52
2023-02-16T08:56:45.776Z,12.05
2023-02-16T08:59:16.722Z,12.07
2023-02-16T09:01:45.074Z,14.00
2023-02-16T09:04:13.781Z,12.18
2023-02-16T09:06:48.288Z,12.20
2023-02-16T09:09:17.276Z,13.32
2023-02-16T09:11:46.066Z,13.10
2023-02-16T09:14:14.523Z,12.00
2023-02-16T09:16:45.755Z,11.38
2023-02-16T09:19:20.946Z,11.98
2023-02-16T09:21:50.814Z,11.18
2023-02-16T09:24:19.342Z,11.98
2023-02-16T09:26:47.954Z,11.88
2023-02-16T09:29:16.372Z,12.52
2023-02-16T09:31:45.439Z,10.68
2023-02-16T09:34:21.173Z,9.80
2023-02-16T09:36:50.191Z,11.52
2023-02-16T09:39:19.064Z,10.90
2023-02-16T09:42:34.600Z,11.70
2023-02-16T09:45:09.770Z,11.85
2023-02-16T09:47:45.314Z,10.77
2023-02-16T09:50:17.084Z,11.55
2023-02-16T09:53:08.876Z,12.15
2023-02-16T09:55:47.461Z,12.00
2023-02-16T09:58:30.837Z,12.15
2023-02-16T10:01:24.319Z,11.77
2023-02-16T10:04:25.324Z,10.93
2023-02-16T10:07:27.400Z,12.40
2023-02-16T10:09:56.946Z,10.93
2023-02-16T10:12:32.458Z,12.27
2023-02-16T10:15:16.440Z,10.10
2023-02-16T10:17:56.235Z,11.63
2023-02-16T10:20:34.415Z,12.25
2023-02-16T10:23:27.036Z,10.75
2023-02-16T10:26:08.851Z,11.95
2023-02-16T10:28:54.901Z,12.15
2023-02-16T10:31:43.377Z,11.70
2023-02-16T10:34:29.981Z,13.13
2023-02-16T10:37:16.477Z,11.68
2023-02-16T10:40:09.543Z,12.98
2023-02-16T10:42:41.939Z,11.82
2023-02-16T10:45:51.987Z,12.52
2023-02-16T10:48:22.892Z,13.52
2023-02-16T10:51:09.749Z,12.70
2023-02-16T10:53:53.297Z,12.55
2023-02-16T10:56:41.854Z,13.05
2023-02-16T10:59:25.828Z,12.45
2023-02-16T11:02:00.185Z,13.13
2023-02-16T11:04:43.565Z,12.23
2023-02-16T11:07:15.928Z,12.20
2023-02-16T11:09:57.198Z,12.13
2023-02-16T11:15:21.161Z,13.00
2023-02-16T11:17:50.839Z,11.77
2023-02-16T11:20:45.227Z,12.48
2023-02-16T11:23:31.353Z,12.25
2023-02-16T11:26:12.136Z,11.52
2023-02-16T11:28:46.419Z,12.25
2023-02-16T11:31:28.137Z,10.73
2023-02-16T11:33:56.210Z,13.70
2023-02-16T11:36:30.081Z,12.18
2023-02-16T11:38:59.655Z,11.60
2023-02-16T11:41:28.505Z,12.50
2023-02-16T11:43:58.314Z,13.20
2023-02-16T11:46:26.555Z,12.32
2023-02-16T11:48:54.559Z,13.23
2023-02-16T11:51:34.284Z,12.77
2023-02-16T11:54:07.698Z,14.18
2023-02-16T11:56:36.304Z,14.40
2023-02-16T11:59:07.370Z,13.23
2023-02-16T12:01:55.271Z,12.25
2023-02-16T12:04:38.266Z,12.43
2023-02-16T12:07:36.123Z,11.55
2023-02-16T12:10:35.064Z,15.57
2023-02-16T12:13:22.317Z,13.73
2023-02-16T12:16:04.333Z,14.02
2023-02-16T12:19:06.150Z,12.73
2023-02-16T12:22:05.688Z,13.90
2023-02-16T12:25:24.781Z,13.68
2023-02-16T12:28:25.153Z,11.60
2023-02-16T12:31:17.254Z,12.10
2023-02-16T12:34:10.614Z,12.55
2023-02-16T12:37:03.510Z,11.38
2023-02-16T12:40:02.625Z,12.27
2023-02-16T12:42:49.532Z,12.35
2023-02-16T12:45:22.812Z,12.48
2023-02-16T12:48:45.141Z,13.20
2023-02-16T12:51:23.846Z,12.63
2023-02-16T12:54:11.989Z,12.43
2023-02-16T12:56:45.952Z,12.73
2023-02-16T12:59:37.570Z,12.15
2023-02-16T13:04:57.249Z,10.75
2023-02-16T13:07:36.287Z,12.15
2023-02-16T13:10:25.997Z,12.98
2023-02-16T13:13:05.056Z,12.85
2023-02-16T13:15:37.042Z,12.90
2023-02-16T13:18:17.075Z,12.38
2023-02-16T13:20:55.077Z,13.95
2023-02-16T13:23:28.945Z,13.18
2023-02-16T13:26:48.486Z,12.70
2023-02-16T13:30:26.947Z,11.77
2023-02-16T13:33:37.692Z,12.05
2023-02-16T13:36:23.865Z,10.87
2023-02-16T13:39:22.132Z,12.50
2023-02-16T13:42:21.704Z,11.45
2023-02-16T13:45:10.137Z,12.70
2023-02-16T13:47:39.852Z,12.13
2023-02-16T13:50:22.854Z,12.52
2023-02-16T13:52:56.711Z,11.93
2023-02-16T13:55:38.533Z,12.10
2023-02-16T13:58:12.701Z,11.60
2023-02-16T14:00:48.960Z,12.20
2023-02-16T14:03:22.323Z,10.63
2023-02-16T14:05:54.332Z,13.10
2023-02-16T14:08:30.738Z,11.98
2023-02-16T14:11:09.272Z,12.65
2023-02-16T14:13:47.431Z,12.02
2023-02-16T14:16:22.659Z,12.15
2023-02-16T14:19:17.292Z,12.25
2023-02-16T14:21:49.028Z,12.35
2023-02-16T14:24:26.830Z,13.75
2023-02-16T14:27:08.104Z,12.10
2023-02-16T14:33:15.856Z,11.23
2023-02-16T14:35:59.509Z,14.32
2023-02-16T14:38:44.459Z,14.23
2023-02-16T14:41:29.537Z,11.77
2023-02-16T14:44:06.703Z,14.18
2023-02-16T14:46:46.516Z,12.75
2023-02-16T14:50:03.638Z,13.35
2023-02-16T14:52:47.375Z,12.70
2023-02-16T14:55:37.253Z,13.98
2023-02-16T14:58:49.759Z,13.40
2023-02-16T15:01:19.078Z,14.70
2023-02-16T15:03:50.984Z,13.38
2023-02-16T15:06:43.875Z,13.90
2023-02-16T15:09:18.592Z,16.48
2023-02-16T15:12:23.836Z,17.25
2023-02-16T15:15:00.288Z,13.75
2023-02-16T15:17:38.161Z,15.93
2023-02-16T15:20:33.006Z,14.75
2023-02-16T15:23:15.965Z,16.02
2023-02-16T15:25:54.593Z,14.73
2023-02-16T15:28:30.663Z,15.82
2023-02-16T15:31:17.998Z,15.23
2023-02-16T15:34:07.984Z,14.68
2023-02-16T15:36:43.435Z,16.83
2023-02-16T15:39:38.546Z,16.23
2023-02-16T15:42:20.546Z,14.38
2023-02-16T15:44:49.168Z,15.25
2023-02-16T15:47:25.912Z,15.55
2023-02-16T15:49:54.690Z,14.13
2023-02-16T15:52:33.853Z,14.93
2023-02-16T15:55:04.224Z,13.07
2023-02-16T15:57:37.893Z,14.70
2023-02-16T16:00:23.615Z,14.32
2023-02-16T16:02:58.260Z,13.98
2023-02-16T16:05:41.959Z,13.27
2023-02-16T16:08:14.595Z,14.05
2023-02-16T16:10:44.163Z,14.30
2023-02-16T16:13:32.412Z,15.30
2023-02-16T16:16:06.822Z,13.55
2023-02-16T16:18:39.184Z,14.38
2023-02-16T16:21:35.856Z,14.18
2023-02-16T16:24:07.929Z,14.65
2023-02-16T16:26:58.767Z,16.23
2023-02-16T16:29:47.617Z,14.90
2023-02-16T16:32:28.639Z,15.65
2023-02-16T16:34:56.923Z,15.82
2023-02-16T16:37:30.259Z,16.15
2023-02-16T16:40:21.947Z,16.90
2023-02-16T16:43:14.616Z,15.88
2023-02-16T16:45:48.423Z,17.38
2023-02-16T16:48:39.281Z,18.00
2023-02-16T16:51:21.646Z,15.77
2023-02-16T16:54:06.908Z,15.63
2023-02-16T16:56:40.622Z,17.83
2023-02-16T16:59:09.029Z,18.15
2023-02-16T17:01:37.105Z,18.58
2023-02-16T17:04:04.994Z,16.83
2023-02-16T17:06:32.928Z,16.90
2023-02-16T17:09:02.214Z,18.42
2023-02-16T17:11:34.554Z,16.60
2023-02-16T17:14:13.545Z,16.45
2023-02-16T17:16:45.000Z,15.40
2023-02-16T17:19:15.773Z,17.05
2023-02-16T17:21:44.281Z,14.38
2023-02-16T17:24:14.286Z,16.15
2023-02-16T17:26:42.484Z,15.38
2023-02-16T17:29:10.380Z,16.13
2023-02-16T17:31:38.312Z,15.77
2023-02-16T17:34:06.218Z,13.35
2023-02-16T17:36:34.478Z,16.02
2023-02-16T17:39:02.640Z,15.13
2023-02-16T17:41:30.788Z,15.45
2023-02-16T17:43:58.612Z,14.38
2023-02-16T17:46:28.223Z,15.93
2023-02-16T17:48:56.228Z,15.50
2023-02-16T17:51:25.581Z,14.63
2023-02-16T17:53:54.212Z,14.57
2023-02-16T17:56:24.717Z,14.27
2023-02-16T17:58:53.437Z,14.82
2023-02-16T18:01:21.546Z,14.25
2023-02-16T18:03:49.572Z,14.50
2023-02-16T18:06:20.803Z,15.05
2023-02-16T18:08:48.923Z,16.27
2023-02-16T18:11:17.101Z,15.00
2023-02-16T18:13:45.175Z,14.10
2023-02-16T18:16:21.471Z,14.57
2023-02-16T18:18:49.477Z,14.93
2023-02-16T18:21:17.384Z,15.40
2023-02-16T18:23:45.413Z,13.73
2023-02-16T18:26:15.597Z,14.73
2023-02-16T18:28:44.240Z,13.30
2023-02-16T18:31:12.991Z,13.40
2023-02-16T18:33:41.380Z,14.35
2023-02-16T18:36:09.606Z,12.48
2023-02-16T18:38:37.641Z,12.55
2023-02-16T18:41:06.176Z,12.55
2023-02-16T18:43:35.732Z,12.10
2023-02-16T18:46:08.032Z,11.75
2023-02-16T18:48:36.520Z,12.45
2023-02-16T18:51:09.183Z,10.13
2023-02-16T18:53:37.618Z,11.88
2023-02-16T18:56:07.629Z,12.32
2023-02-16T18:58:36.335Z,12.63
2023-02-16T19:01:26.547Z,11.32
2023-02-16T19:03:54.714Z,11.20
2023-02-16T19:06:22.812Z,11.63
2023-02-16T19:08:51.399Z,10.88
2023-02-16T19:11:21.105Z,12.30
2023-02-16T19:13:49.584Z,11.93
2023-02-16T19:16:17.939Z,12.00
2023-02-16T19:18:46.001Z,10.85
2023-02-16T19:21:14.513Z,13.57
2023-02-16T19:23:43.274Z,12.48
2023-02-16T19:26:14.834Z,10.60
2023-02-16T19:28:43.457Z,11.50
2023-02-16T19:31:20.105Z,13.55
2023-02-16T19:33:48.898Z,12.43
2023-02-16T19:36:17.906Z,11.82
2023-02-16T19:38:46.456Z,13.00
2023-02-16T19:41:14.440Z,13.45
2023-02-16T19:43:42.959Z,13.07
2023-02-16T19:46:11.950Z,13.65
2023-02-16T19:48:40.810Z,13.07
2023-02-16T19:51:09.966Z,12.70
2023-02-16T19:53:38.632Z,12.25
2023-02-16T19:56:14.106Z,13.80
2023-02-16T19:58:42.549Z,12.73
2023-02-16T20:01:14.842Z,13.75
2023-02-16T20:03:43.295Z,12.80
2023-02-16T20:06:27.934Z,11.70
2023-02-16T20:08:56.517Z,11.93
2023-02-16T20:11:26.986Z,14.60
2023-02-16T20:13:55.928Z,13.40
2023-02-16T20:16:24.232Z,10.57
2023-02-16T20:18:52.613Z,11.82
2023-02-16T20:21:26.919Z,13.02
2023-02-16T20:23:59.602Z,13.07
2023-02-16T20:26:34.697Z,13.30
2023-02-16T20:29:04.296Z,12.57
2023-02-16T20:31:50.653Z,11.38
2023-02-16T20:34:19.186Z,11.98
2023-02-16T20:36:47.090Z,12.07
2023-02-16T20:39:15.171Z,13.63
2023-02-16T20:41:43.367Z,11.82
2023-02-16T20:44:12.076Z,12.30
2023-02-16T20:46:40.960Z,11.68
2023-02-16T20:49:09.368Z,12.32
2023-02-16T20:51:38.933Z,13.45
2023-02-16T20:54:07.004Z,11.90
2023-02-16T20:56:34.910Z,12.18
2023-02-16T20:59:03.467Z,13.35
2023-02-16T21:01:43.464Z,12.48
2023-02-16T21:04:12.282Z,11.93
2023-02-16T21:06:40.406Z,11.85
2023-02-16T21:09:10.051Z,13.13
2023-02-16T21:11:38.975Z,12.85
2023-02-16T21:14:08.962Z,12.95
2023-02-16T21:16:37.706Z,11.90
2023-02-16T21:19:14.293Z,12.68
2023-02-16T21:21:45.710Z,12.48
2023-02-16T21:24:13.544Z,12.45
2023-02-16T21:26:41.461Z,11.93
2023-02-16T21:29:09.362Z,11.75
2023-02-16T21:31:37.323Z,9.13
2023-02-16T21:34:05.293Z,11.55
2023-02-16T21:36:33.299Z,10.15
2023-02-16T21:39:03.039Z,10.80
2023-02-16T21:41:31.078Z,11.57
2023-02-16T21:44:00.922Z,10.27
2023-02-16T21:46:33.492Z,10.43
2023-02-16T21:49:01.736Z,10.90
2023-02-16T21:51:33.868Z,11.77
2023-02-16T21:54:01.907Z,11.80
2023-02-16T21:56:35.164Z,10.48
2023-02-16T21:59:05.091Z,10.63
2023-02-16T22:01:37.421Z,11.13
2023-02-16T22:04:06.080Z,11.30
2023-02-16T22:06:38.204Z,10.63
2023-02-16T22:09:14.188Z,11.85
2023-02-16T22:11:42.298Z,12.65
2023-02-16T22:14:10.628Z,10.35
2023-02-16T22:16:38.761Z,11.65
2023-02-16T22:19:11.839Z,12.23
2023-02-16T22:21:42.651Z,10.52
2023-02-16T22:24:15.676Z,14.15
2023-02-16T22:26:43.905Z,11.77
2023-02-16T22:29:12.491Z,13.13
2023-02-16T22:31:48.276Z,13.15
2023-02-16T22:34:20.949Z,12.82
2023-02-16T22:36:49.350Z,13.02
2023-02-16T22:39:18.805Z,12.75
2023-02-16T22:41:50.890Z,14.82
2023-02-16T22:44:18.926Z,12.90
2023-02-16T22:46:46.854Z,13.70
2023-02-16T22:49:15.069Z,13.20
2023-02-16T22:51:43.141Z,13.68
2023-02-16T22:54:14.266Z,12.93
2023-02-16T22:59:11.460Z,11.68
2023-02-16T23:01:39.946Z,13.77
2023-02-16T23:04:07.888Z,13.15
2023-02-16T23:06:37.438Z,13.98
2023-02-16T23:09:09.336Z,13.75
2023-02-16T23:11:37.292Z,14.48
2023-02-16T23:14:05.608Z,12.95
2023-02-16T23:16:33.551Z,14.65
2023-02-16T23:19:01.669Z,13.50
2023-02-16T23:21:33.273Z,13.90
2023-02-16T23:24:01.327Z,14.18
2023-02-16T23:26:30.955Z,15.27
2023-02-16T23:29:01.911Z,15.32
2023-02-16T23:31:35.053Z,16.60
2023-02-16T23:34:03.895Z,15.40
2023-02-16T23:36:37.553Z,14.15
2023-02-16T23:39:13.353Z,13.70
2023-02-16T23:41:42.052Z,14.68
2023-02-16T23:44:12.877Z,12.57
2023-02-16T23:46:41.094Z,14.25
2023-02-16T23:49:09.013Z,13.98
2023-02-16T23:51:36.884Z,12.80
2023-02-16T23:54:04.924Z,11.48
2023-02-16T23:56:32.802Z,11.48
2023-02-16T23:59:01.184Z,13.30
